Kanopolis, KS (67454)

7:32 AM CDT on May 25, 2015 (GMT -0500)
MesoWest | | Change Station
CLOSE
Current Station
Personal Weather Station
Location: Kanopolis, KS
Elevation: 1580 ft
Nearby Weather Stations

Elev 1580 ft 38.73 °N, 98.04 °W | Updated 3 days ago

Mostly Cloudy
Mostly Cloudy
61 °F
Feels Like 61 °F
N
10
Wind Variable Wind from SSW
Gusts 17 mph

Today
High -- | Low -- °F
--% Chance of Precip.
Yesterday
High -- | Low -- °F
Precip. -- in
6:13 AM 8:46 PM
Waxing Crescent, 48% visible
Pressure 29.80 in
Visibility 10.0 miles
Clouds Mostly Cloudy 5500 ft
Dew Point 57 °F
Humidity 89%
Rainfall in
Snow Depth Not available.
UV 0 out of 12
Pollen 7.60 out of 12
Air Quality Not available.
Flu Activity No Activity
METAR KSLN 251153Z AUTO 15006KT 10SM BKN055 14/13 A2982 RMK AO2 SLP091 60036 70036 T01440133 10156 20139 55016

More Conditions Fewer Conditions

Pressure 29.80 in
Visibility 10.0 miles
Clouds Mostly Cloudy 5500 ft
Dew Point 57 °F
Humidity 89%
Rainfall in
Snow Depth Not available.
UV 0 out of 12
Pollen 7.60 out of 12
Air Quality Not available.
Flu Activity No Activity
METAR KSLN 251153Z AUTO 15006KT 10SM BKN055 14/13 A2982 RMK AO2 SLP091 60036 70036 T01440133 10156 20139 55016

More Conditions Fewer Conditions

10-Day Weather Forecast

Almanac

Astronomy

May. 25, 2015 Rise Set
Actual Time
Civil Twilight
Nautical Twilight
Astronomical Twilight
Moon
Length of Visible Light
Length of Day
Tomorrow will be .
, % of the Moon is Illuminated

Today's Extremes

State Highs State Lows

Community

WunderPhotos

Upload Photos

1,823,986 photos uploaded!

WunderBlogs® & News

Nearby

Air Quality

  Air Quality AQ Index Pollutant
Not available.

Snow Depth

Station Depth Elevation

Earthquake Activity

City Distance Mag. Time & Date
Minimum magnitude displayed is 2.5.

Coastal Water Temperatures

Place Temperature

Stations

Nearby Weather Stations

Station Location Temp. Windchill Dew Point Humidity Wind Precip. Elev Updated Type